createdAt,value
2018-01-13T00:00:31.970Z,3.40
2018-01-13T00:03:01.711Z,3.40
2018-01-13T00:05:30.692Z,3.30
2018-01-13T00:07:59.752Z,3.40
2018-01-13T00:10:29.541Z,3.40
2018-01-13T00:12:58.893Z,3.40
2018-01-13T00:15:27.899Z,3.40
2018-01-13T00:17:56.894Z,3.40
2018-01-13T00:20:25.970Z,3.40
2018-01-13T00:22:54.977Z,3.30
2018-01-13T00:25:23.988Z,3.30
2018-01-13T00:27:53.033Z,3.30
2018-01-13T00:30:22.776Z,3.10
2018-01-13T00:32:51.843Z,3.10
2018-01-13T00:35:21.600Z,3.10
2018-01-13T00:37:50.659Z,3.10
2018-01-13T00:40:19.669Z,3.10
2018-01-13T00:42:48.665Z,3.10
2018-01-13T00:45:18.196Z,3.10
2018-01-13T00:47:47.285Z,3.10
2018-01-13T00:50:16.395Z,3.10
2018-01-13T00:52:45.357Z,3.10
2018-01-13T00:55:15.256Z,3.10
2018-01-13T00:57:44.252Z,3.10
2018-01-13T01:00:13.254Z,3.10
2018-01-13T01:02:42.210Z,3.10
2018-01-13T01:05:12.002Z,3.10
2018-01-13T01:07:41.021Z,3.00
2018-01-13T01:10:10.802Z,3.00
2018-01-13T01:12:39.809Z,3.00
2018-01-13T01:15:08.829Z,3.10
2018-01-13T01:17:38.680Z,3.00
2018-01-13T01:20:07.758Z,3.00
2018-01-13T01:22:37.053Z,3.00
2018-01-13T01:25:06.065Z,3.00
2018-01-13T01:27:35.033Z,3.10
2018-01-13T01:30:04.218Z,3.00
2018-01-13T01:32:34.000Z,3.00
2018-01-13T01:35:03.057Z,2.90
2018-01-13T01:37:32.002Z,3.00
2018-01-13T01:40:01.742Z,3.00
2018-01-13T01:42:30.708Z,2.90
2018-01-13T01:45:00.461Z,3.00
2018-01-13T01:47:29.456Z,3.00
2018-01-13T01:49:58.501Z,3.00
2018-01-13T01:52:28.260Z,3.00
2018-01-13T01:54:57.356Z,2.90
2018-01-13T01:57:26.436Z,3.00
2018-01-13T01:59:55.429Z,3.00
2018-01-13T02:02:24.393Z,3.10
2018-01-13T02:04:54.150Z,3.10
2018-01-13T02:07:23.705Z,3.00
2018-01-13T02:09:52.764Z,3.00
2018-01-13T02:12:21.769Z,2.90
2018-01-13T02:14:50.752Z,2.90
2018-01-13T02:17:19.731Z,3.00
2018-01-13T02:19:48.725Z,3.00
2018-01-13T02:22:17.712Z,3.00
2018-01-13T02:24:46.837Z,2.90
2018-01-13T02:27:15.805Z,3.00
2018-01-13T02:29:44.792Z,3.00
2018-01-13T02:32:13.774Z,3.00
2018-01-13T02:34:42.757Z,3.00
2018-01-13T02:37:11.750Z,2.90
2018-01-13T02:39:40.768Z,2.90
2018-01-13T02:42:09.766Z,2.90
2018-01-13T02:44:39.072Z,2.90
2018-01-13T02:47:08.538Z,2.90
2018-01-13T02:49:37.569Z,2.90
2018-01-13T02:52:06.588Z,2.90
2018-01-13T02:54:35.620Z,2.90
2018-01-13T02:57:04.624Z,2.90
2018-01-13T02:59:33.613Z,2.90
2018-01-13T03:02:02.610Z,3.00
2018-01-13T03:04:31.633Z,3.10
2018-01-13T03:07:01.168Z,3.10
2018-01-13T03:09:30.879Z,2.90
2018-01-13T03:12:01.434Z,2.90
2018-01-13T03:14:30.400Z,2.90
2018-01-13T03:16:59.437Z,2.90
2018-01-13T03:19:28.512Z,2.80
2018-01-13T03:21:57.621Z,2.80
2018-01-13T03:24:26.589Z,2.80
2018-01-13T03:26:56.696Z,2.80
2018-01-13T03:29:25.654Z,2.80
2018-01-13T03:31:54.636Z,2.80
2018-01-13T03:34:23.596Z,2.70
2018-01-13T03:36:52.635Z,2.80
2018-01-13T03:39:21.636Z,2.70
2018-01-13T03:41:50.591Z,2.70
2018-01-13T03:44:19.547Z,2.70
2018-01-13T03:46:49.302Z,2.70
2018-01-13T03:49:18.411Z,2.70
2018-01-13T03:51:47.411Z,2.70
2018-01-13T03:54:16.355Z,2.80
2018-01-13T03:56:45.370Z,2.80
2018-01-13T03:59:14.331Z,2.70
2018-01-13T04:01:44.100Z,2.80
2018-01-13T04:04:13.087Z,2.70
2018-01-13T04:06:42.088Z,2.80
2018-01-13T04:09:11.072Z,2.70
2018-01-13T04:11:40.084Z,2.70
2018-01-13T04:14:09.064Z,2.70
2018-01-13T04:16:38.044Z,2.70
2018-01-13T04:19:07.296Z,2.70
2018-01-13T04:21:37.039Z,2.80
2018-01-13T04:24:06.052Z,2.70
2018-01-13T04:26:35.028Z,2.80
2018-01-13T04:29:04.171Z,2.70
2018-01-13T04:31:33.499Z,2.80
2018-01-13T04:34:02.524Z,2.70
2018-01-13T04:36:31.581Z,2.70
2018-01-13T04:39:00.553Z,2.70
2018-01-13T04:41:29.537Z,2.80
2018-01-13T04:43:58.516Z,2.70
2018-01-13T04:46:27.556Z,2.70
2018-01-13T04:48:57.372Z,2.70
2018-01-13T04:51:27.118Z,2.70
2018-01-13T04:53:56.114Z,2.70
2018-01-13T04:56:25.348Z,2.70
2018-01-13T04:58:55.161Z,2.70
2018-01-13T05:01:24.151Z,2.70
2018-01-13T05:03:53.137Z,2.80
2018-01-13T05:06:22.219Z,2.70
2018-01-13T05:08:51.167Z,2.70
2018-01-13T05:11:20.228Z,2.70
2018-01-13T05:13:49.283Z,2.70
2018-01-13T05:16:18.278Z,2.70
2018-01-13T05:18:47.284Z,2.60
2018-01-13T05:21:16.909Z,2.60
2018-01-13T05:23:45.955Z,2.60
2018-01-13T05:26:14.944Z,2.60
2018-01-13T05:28:43.920Z,2.60
2018-01-13T05:31:13.744Z,2.50
2018-01-13T05:37:20.370Z,2.50
2018-01-13T05:39:49.394Z,2.50
2018-01-13T05:42:18.433Z,2.50
2018-01-13T05:44:47.451Z,2.50
2018-01-13T05:47:16.446Z,2.50
2018-01-13T05:49:45.518Z,2.50
2018-01-13T05:52:15.155Z,2.50
2018-01-13T05:54:44.131Z,2.50
2018-01-13T05:57:13.092Z,2.50
2018-01-13T05:59:42.837Z,2.50
2018-01-13T06:02:11.848Z,2.50
2018-01-13T06:04:40.919Z,2.50
2018-01-13T06:07:09.902Z,2.50
2018-01-13T06:09:38.968Z,2.50
2018-01-13T06:12:08.719Z,2.50
2018-01-13T06:14:37.701Z,2.50
2018-01-13T06:17:06.641Z,2.50
2018-01-13T06:19:35.629Z,2.50
2018-01-13T06:22:04.644Z,2.50
2018-01-13T06:24:34.427Z,2.40
2018-01-13T06:27:03.421Z,2.40
2018-01-13T06:29:32.412Z,2.50
2018-01-13T06:32:01.502Z,2.50
2018-01-13T06:34:30.546Z,2.60
2018-01-13T06:36:59.607Z,2.60
2018-01-13T06:39:29.413Z,2.60
2018-01-13T06:41:58.420Z,2.50
2018-01-13T06:44:27.398Z,2.50
2018-01-13T06:46:56.358Z,2.60
2018-01-13T06:49:25.393Z,2.50
2018-01-13T06:51:55.164Z,2.50
2018-01-13T06:54:24.150Z,2.50
2018-01-13T06:56:53.148Z,2.60
2018-01-13T06:59:22.112Z,2.60
2018-01-13T07:01:51.512Z,2.70
2018-01-13T07:04:20.570Z,2.60
2018-01-13T07:06:49.833Z,2.60
2018-01-13T07:09:18.821Z,2.60
2018-01-13T07:11:47.856Z,2.60
2018-01-13T07:14:16.919Z,2.70
2018-01-13T07:16:45.913Z,2.60
2018-01-13T07:19:14.968Z,2.50
2018-01-13T07:21:44.782Z,2.50
2018-01-13T07:24:14.615Z,2.50
2018-01-13T07:26:43.659Z,2.50
2018-01-13T07:29:12.649Z,2.60
2018-01-13T07:31:41.664Z,2.60
2018-01-13T07:34:11.609Z,2.40
2018-01-13T07:36:40.633Z,2.40
2018-01-13T07:39:09.718Z,2.40
2018-01-13T07:41:38.781Z,2.30
2018-01-13T07:44:07.862Z,2.30
2018-01-13T07:46:36.876Z,2.30
2018-01-13T07:49:05.924Z,2.30
2018-01-13T07:51:35.284Z,2.30
2018-01-13T07:54:04.552Z,2.30
2018-01-13T07:56:34.361Z,2.30
